sensor_id;sensor_type;location;lat;lon;timestamp;temperature;humidity
5419;DHT22;2732;52.092;11.556;2022-11-14T00:01:08;5.00;99.90
5419;DHT22;2732;52.092;11.556;2022-11-14T00:06:10;5.10;99.90
5419;DHT22;2732;52.092;11.556;2022-11-14T00:11:11;5.10;99.90
5419;DHT22;2732;52.092;11.556;2022-11-14T00:16:12;5.10;99.90
5419;DHT22;2732;52.092;11.556;2022-11-14T00:21:12;5.10;99.90
5419;DHT22;2732;52.092;11.556;2022-11-14T00:26:13;5.20;99.90
5419;DHT22;2732;52.092;11.556;2022-11-14T00:31:14;5.20;99.90
5419;DHT22;2732;52.092;11.556;2022-11-14T00:36:14;5.20;99.90
5419;DHT22;2732;52.092;11.556;2022-11-14T00:41:15;5.20;99.90
5419;DHT22;2732;52.092;11.556;2022-11-14T00:46:16;5.30;99.90
5419;DHT22;2732;52.092;11.556;2022-11-14T00:51:17;5.30;99.90
5419;DHT22;2732;52.092;11.556;2022-11-14T00:56:18;5.30;99.90
5419;DHT22;2732;52.092;11.556;2022-11-14T01:01:18;5.30;99.90
5419;DHT22;2732;52.092;11.556;2022-11-14T01:06:19;5.40;99.90
5419;DHT22;2732;52.092;11.556;2022-11-14T01:11:21;5.30;99.90
5419;DHT22;2732;52.092;11.556;2022-11-14T01:16:22;5.30;99.90
5419;DHT22;2732;52.092;11.556;2022-11-14T01:21:22;5.30;99.90
5419;DHT22;2732;52.092;11.556;2022-11-14T01:26:23;5.30;99.90
5419;DHT22;2732;52.092;11.556;2022-11-14T01:31:24;5.40;99.90
5419;DHT22;2732;52.092;11.556;2022-11-14T01:36:25;5.40;99.90
5419;DHT22;2732;52.092;11.556;2022-11-14T01:41:26;5.30;99.90
5419;DHT22;2732;52.092;11.556;2022-11-14T01:46:36;5.30;99.90
5419;DHT22;2732;52.092;11.556;2022-11-14T01:51:41;5.30;99.90
5419;DHT22;2732;52.092;11.556;2022-11-14T01:56:54;5.40;99.90
5419;DHT22;2732;52.092;11.556;2022-11-14T02:01:59;5.30;99.90
5419;DHT22;2732;52.092;11.556;2022-11-14T02:07:05;5.30;99.90
5419;DHT22;2732;52.092;11.556;2022-11-14T02:12:10;5.30;99.90
5419;DHT22;2732;52.092;11.556;2022-11-14T02:17:13;5.40;99.90
5419;DHT22;2732;52.092;11.556;2022-11-14T02:22:15;5.40;99.90
5419;DHT22;2732;52.092;11.556;2022-11-14T02:27:16;5.40;99.90
5419;DHT22;2732;52.092;11.556;2022-11-14T02:32:16;5.40;99.90
5419;DHT22;2732;52.092;11.556;2022-11-14T02:37:17;5.40;99.90
5419;DHT22;2732;52.092;11.556;2022-11-14T02:42:18;5.40;99.90
5419;DHT22;2732;52.092;11.556;2022-11-14T02:47:19;5.40;99.90
5419;DHT22;2732;52.092;11.556;2022-11-14T02:52:19;5.40;99.90
5419;DHT22;2732;52.092;11.556;2022-11-14T02:57:22;5.40;99.90
5419;DHT22;2732;52.092;11.556;2022-11-14T03:02:23;5.40;99.90
5419;DHT22;2732;52.092;11.556;2022-11-14T03:07:24;5.40;99.90
5419;DHT22;2732;52.092;11.556;2022-11-14T03:12:24;5.40;99.90
5419;DHT22;2732;52.092;11.556;2022-11-14T03:17:25;5.40;99.90
5419;DHT22;2732;52.092;11.556;2022-11-14T03:22:26;5.40;99.90
5419;DHT22;2732;52.092;11.556;2022-11-14T03:27:27;5.40;99.90
5419;DHT22;2732;52.092;11.556;2022-11-14T03:32:27;5.40;99.90
5419;DHT22;2732;52.092;11.556;2022-11-14T03:37:28;5.40;99.90
5419;DHT22;2732;52.092;11.556;2022-11-14T03:42:33;5.40;99.90
5419;DHT22;2732;52.092;11.556;2022-11-14T03:47:34;5.40;99.90
5419;DHT22;2732;52.092;11.556;2022-11-14T03:52:34;5.40;99.90
5419;DHT22;2732;52.092;11.556;2022-11-14T03:57:35;5.40;99.90
5419;DHT22;2732;52.092;11.556;2022-11-14T04:02:36;5.40;99.90
5419;DHT22;2732;52.092;11.556;2022-11-14T04:07:36;5.40;99.90
5419;DHT22;2732;52.092;11.556;2022-11-14T04:12:37;5.40;99.90
5419;DHT22;2732;52.092;11.556;2022-11-14T04:17:38;5.40;99.90
5419;DHT22;2732;52.092;11.556;2022-11-14T04:22:39;5.40;99.90
5419;DHT22;2732;52.092;11.556;2022-11-14T04:27:40;5.40;99.90
5419;DHT22;2732;52.092;11.556;2022-11-14T04:32:40;5.40;99.90
5419;DHT22;2732;52.092;11.556;2022-11-14T04:37:41;5.40;99.90
5419;DHT22;2732;52.092;11.556;2022-11-14T04:42:42;5.40;99.90
5419;DHT22;2732;52.092;11.556;2022-11-14T04:47:43;5.40;99.90
5419;DHT22;2732;52.092;11.556;2022-11-14T04:52:43;5.40;99.90
5419;DHT22;2732;52.092;11.556;2022-11-14T04:57:44;5.50;99.90
5419;DHT22;2732;52.092;11.556;2022-11-14T05:02:45;5.50;99.90
5419;DHT22;2732;52.092;11.556;2022-11-14T05:07:45;5.50;99.90
5419;DHT22;2732;52.092;11.556;2022-11-14T05:12:46;5.50;99.90
5419;DHT22;2732;52.092;11.556;2022-11-14T05:17:47;5.50;99.90
5419;DHT22;2732;52.092;11.556;2022-11-14T05:22:52;5.50;99.90
5419;DHT22;2732;52.092;11.556;2022-11-14T05:27:55;5.50;99.90
5419;DHT22;2732;52.092;11.556;2022-11-14T05:32:56;5.60;99.90
5419;DHT22;2732;52.092;11.556;2022-11-14T05:37:59;5.60;99.90
5419;DHT22;2732;52.092;11.556;2022-11-14T05:43:01;5.60;99.90
5419;DHT22;2732;52.092;11.556;2022-11-14T05:48:02;5.60;99.90
5419;DHT22;2732;52.092;11.556;2022-11-14T05:53:03;5.60;99.90
5419;DHT22;2732;52.092;11.556;2022-11-14T05:58:03;5.70;99.90
5419;DHT22;2732;52.092;11.556;2022-11-14T06:03:04;5.70;99.90
5419;DHT22;2732;52.092;11.556;2022-11-14T06:08:05;5.70;99.90
5419;DHT22;2732;52.092;11.556;2022-11-14T06:13:06;5.70;99.90
5419;DHT22;2732;52.092;11.556;2022-11-14T06:18:06;5.70;99.90
5419;DHT22;2732;52.092;11.556;2022-11-14T06:23:07;5.80;99.90
5419;DHT22;2732;52.092;11.556;2022-11-14T06:28:07;5.80;99.90
5419;DHT22;2732;52.092;11.556;2022-11-14T06:33:08;5.80;99.90
5419;DHT22;2732;52.092;11.556;2022-11-14T06:38:09;5.80;99.90
5419;DHT22;2732;52.092;11.556;2022-11-14T06:43:10;5.80;99.90
5419;DHT22;2732;52.092;11.556;2022-11-14T06:48:11;5.80;99.90
5419;DHT22;2732;52.092;11.556;2022-11-14T06:53:21;5.80;99.90
5419;DHT22;2732;52.092;11.556;2022-11-14T06:58:25;5.90;99.90
5419;DHT22;2732;52.092;11.556;2022-11-14T07:03:26;5.90;99.90
5419;DHT22;2732;52.092;11.556;2022-11-14T07:08:27;5.90;99.90
5419;DHT22;2732;52.092;11.556;2022-11-14T07:13:28;5.90;99.90
5419;DHT22;2732;52.092;11.556;2022-11-14T07:18:31;5.90;99.90
5419;DHT22;2732;52.092;11.556;2022-11-14T07:23:34;5.90;99.90
5419;DHT22;2732;52.092;11.556;2022-11-14T07:28:39;6.00;99.90
5419;DHT22;2732;52.092;11.556;2022-11-14T07:33:41;6.00;99.90
5419;DHT22;2732;52.092;11.556;2022-11-14T07:38:43;6.00;99.90
5419;DHT22;2732;52.092;11.556;2022-11-14T07:43:44;6.10;99.90
5419;DHT22;2732;52.092;11.556;2022-11-14T07:48:45;6.10;99.90
5419;DHT22;2732;52.092;11.556;2022-11-14T07:53:46;6.20;99.90
5419;DHT22;2732;52.092;11.556;2022-11-14T07:58:47;6.20;99.90
5419;DHT22;2732;52.092;11.556;2022-11-14T08:03:47;6.20;99.90
5419;DHT22;2732;52.092;11.556;2022-11-14T08:08:48;6.30;99.90
5419;DHT22;2732;52.092;11.556;2022-11-14T08:13:49;6.30;99.90
5419;DHT22;2732;52.092;11.556;2022-11-14T08:18:49;6.40;99.90
5419;DHT22;2732;52.092;11.556;2022-11-14T08:23:50;6.40;99.90
5419;DHT22;2732;52.092;11.556;2022-11-14T08:28:52;6.50;99.90
5419;DHT22;2732;52.092;11.556;2022-11-14T08:33:53;6.60;99.90
5419;DHT22;2732;52.092;11.556;2022-11-14T08:38:54;6.60;99.90
5419;DHT22;2732;52.092;11.556;2022-11-14T08:43:55;6.70;99.90
5419;DHT22;2732;52.092;11.556;2022-11-14T08:48:55;6.70;99.90
5419;DHT22;2732;52.092;11.556;2022-11-14T08:53:56;6.90;99.90
5419;DHT22;2732;52.092;11.556;2022-11-14T08:58:57;7.00;99.90
5419;DHT22;2732;52.092;11.556;2022-11-14T09:03:58;7.00;99.90
5419;DHT22;2732;52.092;11.556;2022-11-14T09:08:59;7.20;99.90
5419;DHT22;2732;52.092;11.556;2022-11-14T09:14:00;7.30;99.90
5419;DHT22;2732;52.092;11.556;2022-11-14T09:19:02;7.30;99.90
5419;DHT22;2732;52.092;11.556;2022-11-14T09:24:02;7.40;99.90
5419;DHT22;2732;52.092;11.556;2022-11-14T09:29:03;7.40;99.90
5419;DHT22;2732;52.092;11.556;2022-11-14T09:34:05;7.40;99.90
5419;DHT22;2732;52.092;11.556;2022-11-14T09:39:06;7.40;99.90
5419;DHT22;2732;52.092;11.556;2022-11-14T09:44:27;7.40;99.90
5419;DHT22;2732;52.092;11.556;2022-11-14T09:49:56;7.40;99.90
5419;DHT22;2732;52.092;11.556;2022-11-14T09:55:11;7.40;99.90
5419;DHT22;2732;52.092;11.556;2022-11-14T10:00:24;7.40;99.90
5419;DHT22;2732;52.092;11.556;2022-11-14T10:11:37;7.30;99.90
5419;DHT22;2732;52.092;11.556;2022-11-14T10:17:03;7.40;99.90
5419;DHT22;2732;52.092;11.556;2022-11-14T10:33:17;7.50;99.90
5419;DHT22;2732;52.092;11.556;2022-11-14T10:38:34;7.50;99.90
5419;DHT22;2732;52.092;11.556;2022-11-14T10:43:57;7.60;99.90
5419;DHT22;2732;52.092;11.556;2022-11-14T10:48:58;7.70;99.90
5419;DHT22;2732;52.092;11.556;2022-11-14T10:54:13;7.70;99.90
5419;DHT22;2732;52.092;11.556;2022-11-14T10:59:27;7.80;99.90
5419;DHT22;2732;52.092;11.556;2022-11-14T11:04:30;7.80;99.90
5419;DHT22;2732;52.092;11.556;2022-11-14T11:09:34;7.90;99.90
5419;DHT22;2732;52.092;11.556;2022-11-14T11:15:17;8.00;99.90
5419;DHT22;2732;52.092;11.556;2022-11-14T11:20:32;8.10;99.90
5419;DHT22;2732;52.092;11.556;2022-11-14T11:25:36;8.10;99.90
5419;DHT22;2732;52.092;11.556;2022-11-14T11:30:38;8.20;99.90
5419;DHT22;2732;52.092;11.556;2022-11-14T11:35:40;8.20;99.90
5419;DHT22;2732;52.092;11.556;2022-11-14T11:40:44;8.30;99.90
5419;DHT22;2732;52.092;11.556;2022-11-14T11:45:48;8.40;99.90
5419;DHT22;2732;52.092;11.556;2022-11-14T11:50:50;8.40;99.90
5419;DHT22;2732;52.092;11.556;2022-11-14T11:55:59;8.50;99.90
5419;DHT22;2732;52.092;11.556;2022-11-14T12:01:20;8.60;99.90
5419;DHT22;2732;52.092;11.556;2022-11-14T12:06:23;8.60;99.90
5419;DHT22;2732;52.092;11.556;2022-11-14T12:11:26;8.70;99.90
5419;DHT22;2732;52.092;11.556;2022-11-14T12:32:54;9.00;99.90
5419;DHT22;2732;52.092;11.556;2022-11-14T12:38:05;9.10;99.90
5419;DHT22;2732;52.092;11.556;2022-11-14T12:43:39;9.10;99.90
5419;DHT22;2732;52.092;11.556;2022-11-14T12:48:46;9.20;99.90
5419;DHT22;2732;52.092;11.556;2022-11-14T12:53:47;9.30;99.90
5419;DHT22;2732;52.092;11.556;2022-11-14T13:10:16;9.40;99.90
5419;DHT22;2732;52.092;11.556;2022-11-14T13:15:31;9.40;99.90
5419;DHT22;2732;52.092;11.556;2022-11-14T13:21:05;9.50;99.90
5419;DHT22;2732;52.092;11.556;2022-11-14T13:26:47;9.60;99.90
5419;DHT22;2732;52.092;11.556;2022-11-14T13:31:50;9.80;99.90
5419;DHT22;2732;52.092;11.556;2022-11-14T13:42:43;10.10;99.90
5419;DHT22;2732;52.092;11.556;2022-11-14T13:48:26;10.10;99.90
5419;DHT22;2732;52.092;11.556;2022-11-14T13:53:49;10.10;99.90
5419;DHT22;2732;52.092;11.556;2022-11-14T13:59:33;10.10;99.90
5419;DHT22;2732;52.092;11.556;2022-11-14T14:16:12;10.10;99.90
5419;DHT22;2732;52.092;11.556;2022-11-14T14:32:17;10.10;99.90
5419;DHT22;2732;52.092;11.556;2022-11-14T14:37:22;10.00;99.90
5419;DHT22;2732;52.092;11.556;2022-11-14T14:42:40;10.00;99.90
5419;DHT22;2732;52.092;11.556;2022-11-14T14:47:44;9.90;99.90
5419;DHT22;2732;52.092;11.556;2022-11-14T14:52:57;9.90;99.90
5419;DHT22;2732;52.092;11.556;2022-11-14T15:03:22;9.80;99.90
5419;DHT22;2732;52.092;11.556;2022-11-14T15:08:24;9.70;99.90
5419;DHT22;2732;52.092;11.556;2022-11-14T15:13:28;9.60;99.90
5419;DHT22;2732;52.092;11.556;2022-11-14T15:18:30;9.50;99.90
5419;DHT22;2732;52.092;11.556;2022-11-14T15:23:31;9.50;99.90
5419;DHT22;2732;52.092;11.556;2022-11-14T15:28:32;9.40;99.90
5419;DHT22;2732;52.092;11.556;2022-11-14T15:33:34;9.30;99.90
5419;DHT22;2732;52.092;11.556;2022-11-14T15:38:35;9.20;99.90
5419;DHT22;2732;52.092;11.556;2022-11-14T15:43:46;9.20;99.90
5419;DHT22;2732;52.092;11.556;2022-11-14T15:48:48;9.10;99.90
5419;DHT22;2732;52.092;11.556;2022-11-14T15:53:49;9.00;99.90
5419;DHT22;2732;52.092;11.556;2022-11-14T15:58:52;8.90;99.90
5419;DHT22;2732;52.092;11.556;2022-11-14T16:03:53;8.90;99.90
5419;DHT22;2732;52.092;11.556;2022-11-14T16:08:53;8.80;99.90
5419;DHT22;2732;52.092;11.556;2022-11-14T16:13:54;8.70;99.90
5419;DHT22;2732;52.092;11.556;2022-11-14T16:18:55;8.60;99.90
5419;DHT22;2732;52.092;11.556;2022-11-14T16:23:55;8.40;99.90
5419;DHT22;2732;52.092;11.556;2022-11-14T16:28:57;8.30;99.90
5419;DHT22;2732;52.092;11.556;2022-11-14T16:33:58;8.20;99.90
5419;DHT22;2732;52.092;11.556;2022-11-14T16:39:01;8.10;99.90
5419;DHT22;2732;52.092;11.556;2022-11-14T16:44:02;8.00;99.90
5419;DHT22;2732;52.092;11.556;2022-11-14T16:49:03;7.90;99.90
5419;DHT22;2732;52.092;11.556;2022-11-14T16:54:04;7.80;99.90
5419;DHT22;2732;52.092;11.556;2022-11-14T16:59:05;7.70;99.90
5419;DHT22;2732;52.092;11.556;2022-11-14T17:04:07;7.60;99.90
5419;DHT22;2732;52.092;11.556;2022-11-14T17:09:11;7.50;99.90
5419;DHT22;2732;52.092;11.556;2022-11-14T17:14:13;7.50;99.90
5419;DHT22;2732;52.092;11.556;2022-11-14T17:19:14;7.30;99.90
5419;DHT22;2732;52.092;11.556;2022-11-14T17:24:14;7.30;99.90
5419;DHT22;2732;52.092;11.556;2022-11-14T17:29:15;7.20;99.90
5419;DHT22;2732;52.092;11.556;2022-11-14T17:34:16;7.10;99.90
5419;DHT22;2732;52.092;11.556;2022-11-14T17:39:16;7.00;99.90
5419;DHT22;2732;52.092;11.556;2022-11-14T17:44:17;7.00;99.90
5419;DHT22;2732;52.092;11.556;2022-11-14T17:49:18;6.90;99.90
5419;DHT22;2732;52.092;11.556;2022-11-14T17:54:18;6.90;99.90
5419;DHT22;2732;52.092;11.556;2022-11-14T17:59:19;6.90;99.90
5419;DHT22;2732;52.092;11.556;2022-11-14T18:04:21;6.80;99.90
5419;DHT22;2732;52.092;11.556;2022-11-14T18:09:21;6.80;99.90
5419;DHT22;2732;52.092;11.556;2022-11-14T18:14:22;6.80;99.90
5419;DHT22;2732;52.092;11.556;2022-11-14T18:19:23;6.70;99.90
5419;DHT22;2732;52.092;11.556;2022-11-14T18:24:23;6.70;99.90
5419;DHT22;2732;52.092;11.556;2022-11-14T18:29:24;6.70;99.90
5419;DHT22;2732;52.092;11.556;2022-11-14T18:34:25;6.70;99.90
5419;DHT22;2732;52.092;11.556;2022-11-14T18:39:25;6.60;99.90
5419;DHT22;2732;52.092;11.556;2022-11-14T18:44:28;6.60;99.90
5419;DHT22;2732;52.092;11.556;2022-11-14T18:49:29;6.60;99.90
5419;DHT22;2732;52.092;11.556;2022-11-14T18:54:30;6.50;99.90
5419;DHT22;2732;52.092;11.556;2022-11-14T18:59:30;6.50;99.90
5419;DHT22;2732;52.092;11.556;2022-11-14T19:04:31;6.40;99.90
5419;DHT22;2732;52.092;11.556;2022-11-14T19:09:32;6.40;99.90
5419;DHT22;2732;52.092;11.556;2022-11-14T19:14:33;6.40;99.90
5419;DHT22;2732;52.092;11.556;2022-11-14T19:19:33;6.50;99.90
5419;DHT22;2732;52.092;11.556;2022-11-14T19:24:34;6.50;99.90
5419;DHT22;2732;52.092;11.556;2022-11-14T19:29:35;6.50;99.90
5419;DHT22;2732;52.092;11.556;2022-11-14T19:34:35;6.50;99.90
5419;DHT22;2732;52.092;11.556;2022-11-14T19:39:36;6.50;99.90
5419;DHT22;2732;52.092;11.556;2022-11-14T19:44:37;6.50;99.90
5419;DHT22;2732;52.092;11.556;2022-11-14T19:49:40;6.50;99.90
5419;DHT22;2732;52.092;11.556;2022-11-14T19:54:42;6.50;99.90
5419;DHT22;2732;52.092;11.556;2022-11-14T19:59:42;6.40;99.90
5419;DHT22;2732;52.092;11.556;2022-11-14T20:04:43;6.40;99.90
5419;DHT22;2732;52.092;11.556;2022-11-14T20:09:46;6.40;99.90
5419;DHT22;2732;52.092;11.556;2022-11-14T20:14:46;6.40;99.90
5419;DHT22;2732;52.092;11.556;2022-11-14T20:19:47;6.40;99.90
5419;DHT22;2732;52.092;11.556;2022-11-14T20:24:48;6.40;99.90
5419;DHT22;2732;52.092;11.556;2022-11-14T20:29:48;6.40;99.90
5419;DHT22;2732;52.092;11.556;2022-11-14T20:34:49;6.40;99.90
5419;DHT22;2732;52.092;11.556;2022-11-14T20:39:49;6.40;99.90
5419;DHT22;2732;52.092;11.556;2022-11-14T20:44:50;6.40;99.90
5419;DHT22;2732;52.092;11.556;2022-11-14T20:49:51;6.30;99.90
5419;DHT22;2732;52.092;11.556;2022-11-14T20:54:52;6.30;99.90
5419;DHT22;2732;52.092;11.556;2022-11-14T20:59:52;6.30;99.90
5419;DHT22;2732;52.092;11.556;2022-11-14T21:04:53;6.20;99.90
5419;DHT22;2732;52.092;11.556;2022-11-14T21:09:54;6.20;99.90
5419;DHT22;2732;52.092;11.556;2022-11-14T21:15:13;6.10;99.90
5419;DHT22;2732;52.092;11.556;2022-11-14T21:20:13;6.10;99.90
5419;DHT22;2732;52.092;11.556;2022-11-14T21:25:14;6.10;99.90
5419;DHT22;2732;52.092;11.556;2022-11-14T21:30:15;6.00;99.90
5419;DHT22;2732;52.092;11.556;2022-11-14T21:35:16;6.00;99.90
5419;DHT22;2732;52.092;11.556;2022-11-14T21:40:16;6.00;99.90
5419;DHT22;2732;52.092;11.556;2022-11-14T21:45:17;6.00;99.90
5419;DHT22;2732;52.092;11.556;2022-11-14T21:50:18;6.00;99.90
5419;DHT22;2732;52.092;11.556;2022-11-14T21:55:18;5.90;99.90
5419;DHT22;2732;52.092;11.556;2022-11-14T22:00:19;5.90;99.90
5419;DHT22;2732;52.092;11.556;2022-11-14T22:05:20;5.90;99.90
5419;DHT22;2732;52.092;11.556;2022-11-14T22:10:20;5.90;99.90
5419;DHT22;2732;52.092;11.556;2022-11-14T22:15:21;5.90;99.90
5419;DHT22;2732;52.092;11.556;2022-11-14T22:20:22;5.90;99.90
5419;DHT22;2732;52.092;11.556;2022-11-14T22:25:22;5.90;99.90
5419;DHT22;2732;52.092;11.556;2022-11-14T22:30:23;5.90;99.90
5419;DHT22;2732;52.092;11.556;2022-11-14T22:35:24;5.90;99.90
5419;DHT22;2732;52.092;11.556;2022-11-14T22:40:24;5.90;99.90
5419;DHT22;2732;52.092;11.556;2022-11-14T22:45:25;5.90;99.90
5419;DHT22;2732;52.092;11.556;2022-11-14T22:50:26;5.90;99.90
5419;DHT22;2732;52.092;11.556;2022-11-14T22:55:26;5.90;99.90
5419;DHT22;2732;52.092;11.556;2022-11-14T23:00:27;5.90;99.90
5419;DHT22;2732;52.092;11.556;2022-11-14T23:05:28;5.90;99.90
5419;DHT22;2732;52.092;11.556;2022-11-14T23:10:29;5.90;99.90
5419;DHT22;2732;52.092;11.556;2022-11-14T23:15:30;5.90;99.90
5419;DHT22;2732;52.092;11.556;2022-11-14T23:20:34;5.90;99.90
5419;DHT22;2732;52.092;11.556;2022-11-14T23:25:35;5.90;99.90
5419;DHT22;2732;52.092;11.556;2022-11-14T23:30:37;5.90;99.90
5419;DHT22;2732;52.092;11.556;2022-11-14T23:35:37;5.90;99.90
5419;DHT22;2732;52.092;11.556;2022-11-14T23:40:39;5.90;99.90
5419;DHT22;2732;52.092;11.556;2022-11-14T23:45:41;5.90;99.90
5419;DHT22;2732;52.092;11.556;2022-11-14T23:50:43;5.90;99.90
